WXM80 ListenWXM80 Stop

You find our weather info also at:

UK Metoffice

WeatherCloud

Weather Underground

Northeastern Weather Network

AWEKAS

Citizen Weather Observer Program (CWOP)

HAMweather, WeatherForYou, PWS Weather


Weather Underground History page Text

Daily Summary for January 1, 2017 Units:  English    Metric   Both
« Previous Day
Next Day »
Daily Weekly Monthly Yearly Custom
  High: Low: Average:
Temperature: 47.2 °F 30.9 °F 41.7 °F
Dew Point: 35.5 °F 24.7 °F 29.3 °F
Humidity: 84 % 43 % 62 %
Wind Speed: 11.2 mph 0.0 mph 3.1 mph
Wind Gust: 29.0 mph - -
Wind:- - West
Pressure: 30.43 in 29.85 in -
Precipitation: 0.00 in    
Historical Graphs
 
 
Tabular Data for January 1, 2017
Time Temperature Dew Point Pressure Wind Wind Speed Wind Gust Humidity Rainfall Rate (Hourly)
00:00 43.6 °F 30.2 °F 29.85 in SW 2.2 mph 29.0 mph 59 % 0.00 in
00:05 43.6 °F 29.8 °F 29.85 in South 4.6 mph 29.0 mph 58 % 0.00 in
00:10 43.6 °F 30.2 °F 29.86 in SSW 4.1 mph 29.0 mph 59 % 0.00 in
00:15 43.7 °F 30.3 °F 29.86 in SW 4.4 mph 29.0 mph 59 % 0.00 in
00:20 43.7 °F 29.9 °F 29.86 in SW 2.8 mph 29.0 mph 58 % 0.00 in
00:25 43.7 °F 29.9 °F 29.86 in WSW 4.3 mph 29.0 mph 58 % 0.00 in
00:30 43.7 °F 30.3 °F 29.86 in SSW 3.0 mph 29.0 mph 59 % 0.00 in
00:35 43.7 °F 29.9 °F 29.86 in WSW 5.5 mph 29.0 mph 58 % 0.00 in
00:40 43.7 °F 30.3 °F 29.86 in SW 5.8 mph 29.0 mph 59 % 0.00 in
00:45 43.7 °F 29.9 °F 29.86 in SW 4.9 mph 29.0 mph 58 % 0.00 in
00:51 43.7 °F 30.3 °F 29.86 in SW 3.7 mph 29.0 mph 59 % 0.00 in
00:56 43.7 °F 31.1 °F 29.87 in SSW 6.0 mph 29.0 mph 61 % 0.00 in
01:01 43.6 °F 31.4 °F 29.87 in WSW 4.6 mph 29.0 mph 62 % 0.00 in
01:06 43.5 °F 31.3 °F 29.88 in SW 5.0 mph 29.0 mph 62 % 0.00 in
01:11 43.4 °F 31.6 °F 29.88 in WSW 6.9 mph 29.0 mph 63 % 0.00 in
01:16 43.3 °F 31.5 °F 29.88 in WSW 4.4 mph 29.0 mph 63 % 0.00 in
01:21 43.3 °F 32.7 °F 29.88 in SW 11.2 mph 29.0 mph 66 % 0.00 in
01:26 43.0 °F 33.9 °F 29.88 in SSW 4.2 mph 29.0 mph 70 % 0.00 in
01:31 42.6 °F 34.2 °F 29.88 in SSE 6.7 mph 29.0 mph 72 % 0.00 in
01:36 42.1 °F 34.7 °F 29.87 in SSW 3.9 mph 29.0 mph 75 % 0.00 in
01:41 41.8 °F 34.8 °F 29.87 in SSW 8.5 mph 29.0 mph 76 % 0.00 in
01:46 41.5 °F 35.2 °F 29.87 in SSW 6.4 mph 29.0 mph 78 % 0.00 in
01:51 41.4 °F 35.4 °F 29.87 in SSW 5.8 mph 29.0 mph 79 % 0.00 in
01:56 41.3 °F 35.3 °F 29.88 in SW 5.8 mph 29.0 mph 79 % 0.00 in
02:01 41.3 °F 35.3 °F 29.88 in SSW 4.8 mph 29.0 mph 79 % 0.00 in
02:07 41.2 °F 35.5 °F 29.88 in SSW 5.3 mph 29.0 mph 80 % 0.00 in
02:12 41.2 °F 35.2 °F 29.88 in SSW 2.2 mph 29.0 mph 79 % 0.00 in
02:17 41.2 °F 35.2 °F 29.89 in WSW 1.5 mph 29.0 mph 79 % 0.00 in
02:22 41.1 °F 35.1 °F 29.88 in SW 0.1 mph 29.0 mph 79 % 0.00 in
02:27 41.1 °F 35.1 °F 29.88 in SW 1.1 mph 29.0 mph 79 % 0.00 in
02:32 41.1 °F 35.1 °F 29.88 in SW 3.0 mph 29.0 mph 79 % 0.00 in
02:37 41.1 °F 34.4 °F 29.88 in WSW 3.5 mph 29.0 mph 77 % 0.00 in
02:42 41.1 °F 34.1 °F 29.88 in WSW 3.9 mph 29.0 mph 76 % 0.00 in
02:47 41.2 °F 33.9 °F 29.88 in SSW 1.1 mph 29.0 mph 75 % 0.00 in
02:52 41.3 °F 34.0 °F 29.88 in SW 2.8 mph 29.0 mph 75 % 0.00 in
02:58 41.3 °F 33.6 °F 29.88 in SW 1.4 mph 29.0 mph 74 % 0.00 in
03:03 41.4 °F 33.4 °F 29.88 in South 2.3 mph 29.0 mph 73 % 0.00 in
03:08 41.5 °F 33.1 °F 29.88 in South 2.6 mph 29.0 mph 72 % 0.00 in
03:13 41.6 °F 33.2 °F 29.88 in SW 2.7 mph 29.0 mph 72 % 0.00 in
03:18 41.8 °F 33.1 °F 29.89 in SSW 4.5 mph 29.0 mph 71 % 0.00 in
03:23 41.9 °F 32.8 °F 29.88 in SW 2.0 mph 29.0 mph 70 % 0.00 in
03:28 42.1 °F 32.3 °F 29.88 in SW 4.2 mph 29.0 mph 68 % 0.00 in
03:33 42.2 °F 32.0 °F 29.88 in SSW 3.7 mph 29.0 mph 67 % 0.00 in
03:38 42.4 °F 32.6 °F 29.89 in SW 1.2 mph 29.0 mph 68 % 0.00 in
03:43 42.5 °F 32.3 °F 29.88 in SSW 6.4 mph 29.0 mph 67 % 0.00 in
03:48 42.6 °F 32.0 °F 29.88 in SW 5.4 mph 29.0 mph 66 % 0.00 in
03:53 42.6 °F 31.7 °F 29.89 in South 6.0 mph 29.0 mph 65 % 0.00 in
03:58 42.6 °F 31.7 °F 29.89 in SSW 3.7 mph 29.0 mph 65 % 0.00 in
04:03 42.6 °F 31.7 °F 29.90 in SW 5.8 mph 29.0 mph 65 % 0.00 in
04:08 42.6 °F 31.3 °F 29.90 in SSW 4.3 mph 29.0 mph 64 % 0.00 in
04:14 42.5 °F 31.2 °F 29.90 in WSW 2.8 mph 29.0 mph 64 % 0.00 in
04:19 42.5 °F 31.2 °F 29.90 in SW 4.2 mph 29.0 mph 64 % 0.00 in
04:24 42.5 °F 31.2 °F 29.90 in WSW 4.1 mph 29.0 mph 64 % 0.00 in
04:29 42.4 °F 31.1 °F 29.90 in WSW 4.7 mph 29.0 mph 64 % 0.00 in
04:34 42.4 °F 30.7 °F 29.90 in SW 3.0 mph 29.0 mph 63 % 0.00 in
04:39 42.4 °F 30.7 °F 29.90 in WSW 3.8 mph 29.0 mph 63 % 0.00 in
04:44 42.4 °F 30.7 °F 29.90 in SW 5.4 mph 29.0 mph 63 % 0.00 in
04:49 42.4 °F 30.7 °F 29.91 in West 4.1 mph 29.0 mph 63 % 0.00 in
04:54 42.4 °F 30.7 °F 29.92 in SW 8.1 mph 29.0 mph 63 % 0.00 in
04:59 42.6 °F 30.5 °F 29.91 in WSW 6.5 mph 29.0 mph 62 % 0.00 in
05:04 42.8 °F 30.6 °F 29.91 in SW 6.0 mph 17.0 mph 62 % 0.00 in
05:09 42.9 °F 30.8 °F 29.91 in SSW 6.3 mph 29.0 mph 62 % 0.00 in
05:14 43.0 °F 30.5 °F 29.91 in WSW 6.0 mph 12.0 mph 61 % 0.00 in
05:19 43.2 °F 30.6 °F 29.91 in SW 4.9 mph 29.0 mph 61 % 0.00 in
05:24 43.3 °F 30.7 °F 29.92 in SW 4.5 mph 29.0 mph 61 % 0.00 in
05:29 43.3 °F 30.7 °F 29.92 in SW 3.0 mph 8.0 mph 61 % 0.00 in
05:34 43.3 °F 30.7 °F 29.93 in SW 2.0 mph 14.0 mph 61 % 0.00 in
05:39 43.3 °F 30.7 °F 29.93 in SW 5.0 mph 8.0 mph 61 % 0.00 in
05:44 43.3 °F 30.7 °F 29.93 in SW 6.0 mph 8.0 mph 61 % 0.00 in
05:49 43.2 °F 30.6 °F 29.94 in SSW 2.9 mph 29.0 mph 61 % 0.00 in
05:54 43.1 °F 30.6 °F 29.94 in SW 6.0 mph 10.0 mph 61 % 0.00 in
05:59 43.1 °F 30.6 °F 29.95 in SW 5.3 mph 29.0 mph 61 % 0.00 in
06:04 43.1 °F 30.6 °F 29.95 in SW 3.0 mph 10.0 mph 61 % 0.00 in
06:09 43.0 °F 30.5 °F 29.95 in SW 3.0 mph 9.0 mph 61 % 0.00 in
06:14 42.9 °F 30.4 °F 29.96 in SW 5.0 mph 8.0 mph 61 % 0.00 in
06:19 42.9 °F 30.8 °F 29.96 in WSW 3.0 mph 12.0 mph 62 % 0.00 in
06:24 42.9 °F 30.8 °F 29.97 in SW 6.0 mph 10.0 mph 62 % 0.00 in
06:29 42.8 °F 30.7 °F 29.97 in SW 5.0 mph 10.0 mph 62 % 0.00 in
06:34 42.8 °F 30.7 °F 29.97 in WSW 2.0 mph 9.0 mph 62 % 0.00 in
06:39 42.8 °F 30.7 °F 29.97 in SW 2.0 mph 8.0 mph 62 % 0.00 in
06:44 42.7 °F 30.6 °F 29.97 in WSW 5.0 mph 8.0 mph 62 % 0.00 in
06:49 42.7 °F 31.0 °F 29.98 in WSW 2.0 mph 7.0 mph 63 % 0.00 in
06:54 42.6 °F 30.9 °F 29.98 in WSW 3.0 mph 9.0 mph 63 % 0.00 in
06:59 42.6 °F 31.3 °F 29.98 in West 3.1 mph 29.0 mph 64 % 0.00 in
07:04 42.6 °F 31.3 °F 29.98 in West 1.8 mph 29.0 mph 64 % 0.00 in
07:09 42.6 °F 31.3 °F 29.99 in West 4.4 mph 29.0 mph 64 % 0.00 in
07:14 42.6 °F 31.3 °F 29.99 in SW 2.9 mph 29.0 mph 64 % 0.00 in
07:19 42.6 °F 31.7 °F 29.99 in WSW 2.9 mph 29.0 mph 65 % 0.00 in
07:24 42.6 °F 31.7 °F 29.99 in West 4.1 mph 29.0 mph 65 % 0.00 in
07:29 42.7 °F 31.7 °F 29.99 in West 5.0 mph 29.0 mph 65 % 0.00 in
07:35 42.9 °F 31.9 °F 29.99 in WSW 3.0 mph 29.0 mph 65 % 0.00 in
07:40 42.9 °F 31.9 °F 29.99 in West 6.7 mph 29.0 mph 65 % 0.00 in
07:45 43.1 °F 32.1 °F 30.00 in SSW 2.8 mph 29.0 mph 65 % 0.00 in
07:50 43.2 °F 32.2 °F 30.00 in West 6.6 mph 29.0 mph 65 % 0.00 in
07:55 43.3 °F 32.3 °F 30.01 in WSW 5.5 mph 29.0 mph 65 % 0.00 in
08:00 43.4 °F 32.4 °F 30.01 in WSW 1.2 mph 29.0 mph 65 % 0.00 in
08:05 43.4 °F 32.4 °F 30.01 in West 1.8 mph 29.0 mph 65 % 0.00 in
08:10 43.4 °F 32.4 °F 30.02 in WSW 1.8 mph 29.0 mph 65 % 0.00 in
08:15 43.4 °F 32.4 °F 30.02 in WSW 4.3 mph 29.0 mph 65 % 0.00 in
08:20 43.5 °F 32.5 °F 30.02 in WSW 7.0 mph 29.0 mph 65 % 0.00 in
08:25 43.7 °F 32.7 °F 30.03 in WNW 6.0 mph 29.0 mph 65 % 0.00 in
08:30 43.8 °F 32.8 °F 30.03 in WSW 6.7 mph 29.0 mph 65 % 0.00 in
08:40 44.1 °F 33.1 °F 30.04 in WSW 5.7 mph 29.0 mph 65 % 0.00 in
08:45 44.3 °F 33.3 °F 30.05 in WNW 2.6 mph 29.0 mph 65 % 0.00 in
08:51 44.4 °F 33.4 °F 30.05 in WSW 3.6 mph 29.0 mph 65 % 0.00 in
08:56 44.7 °F 33.6 °F 30.06 in NW 2.8 mph 29.0 mph 65 % 0.00 in
09:01 44.9 °F 33.5 °F 30.06 in WNW 5.5 mph 29.0 mph 64 % 0.00 in
09:06 45.2 °F 33.3 °F 30.07 in WNW 7.0 mph 29.0 mph 63 % 0.00 in
09:11 45.3 °F 33.4 °F 30.07 in WNW 1.9 mph 29.0 mph 63 % 0.00 in
09:16 45.4 °F 33.5 °F 30.08 in WNW 3.7 mph 29.0 mph 63 % 0.00 in
09:21 45.6 °F 33.7 °F 30.08 in West 6.4 mph 29.0 mph 63 % 0.00 in
09:26 45.8 °F 33.9 °F 30.09 in WNW 3.2 mph 29.0 mph 63 % 0.00 in
09:31 45.9 °F 34.0 °F 30.09 in WSW 4.5 mph 29.0 mph 63 % 0.00 in
09:36 46.0 °F 33.7 °F 30.09 in West 7.4 mph 29.0 mph 62 % 0.00 in
09:40 46.1 °F 33.8 °F 30.09 in West 3.3 mph 29.0 mph 62 % 0.00 in
09:46 46.3 °F 33.6 °F 30.10 in WNW 4.1 mph 29.0 mph 61 % 0.00 in
09:51 46.4 °F 33.7 °F 30.10 in West 3.8 mph 29.0 mph 61 % 0.00 in
09:56 46.6 °F 33.4 °F 30.10 in SSW 2.3 mph 29.0 mph 60 % 0.00 in
10:01 46.7 °F 33.5 °F 30.10 in WNW 3.2 mph 29.0 mph 60 % 0.00 in
10:06 46.8 °F 33.6 °F 30.11 in NNW 3.9 mph 29.0 mph 60 % 0.00 in
10:11 46.8 °F 34.0 °F 30.11 in NNW 4.3 mph 29.0 mph 61 % 0.00 in
10:16 46.8 °F 34.5 °F 30.11 in West 3.5 mph 29.0 mph 62 % 0.00 in
10:21 46.7 °F 34.0 °F 30.11 in West 5.7 mph 29.0 mph 61 % 0.00 in
10:26 46.7 °F 33.5 °F 30.12 in NNW 4.8 mph 29.0 mph 60 % 0.00 in
10:31 46.7 °F 33.1 °F 30.11 in WNW 6.5 mph 29.0 mph 59 % 0.00 in
10:36 46.7 °F 33.5 °F 30.12 in West 2.8 mph 29.0 mph 60 % 0.00 in
10:41 46.6 °F 32.6 °F 30.12 in NNW 2.2 mph 29.0 mph 58 % 0.00 in
10:46 46.5 °F 32.1 °F 30.12 in West 2.2 mph 29.0 mph 57 % 0.00 in
10:51 46.5 °F 31.6 °F 30.12 in NW 2.7 mph 29.0 mph 56 % 0.00 in
10:57 46.6 °F 32.2 °F 30.12 in WNW 8.7 mph 29.0 mph 57 % 0.00 in
11:02 46.4 °F 32.0 °F 30.12 in WNW 4.8 mph 29.0 mph 57 % 0.00 in
11:07 46.2 °F 31.8 °F 30.12 in WNW 4.4 mph 29.0 mph 57 % 0.00 in
11:12 46.1 °F 30.8 °F 30.13 in NW 5.8 mph 29.0 mph 55 % 0.00 in
11:17 46.0 °F 30.7 °F 30.12 in WNW 2.6 mph 29.0 mph 55 % 0.00 in
11:22 45.9 °F 31.1 °F 30.13 in NW 4.8 mph 29.0 mph 56 % 0.00 in
11:27 45.9 °F 30.2 °F 30.13 in West 7.9 mph 29.0 mph 54 % 0.00 in
11:32 45.8 °F 29.6 °F 30.13 in NW 5.3 mph 29.0 mph 53 % 0.00 in
11:37 45.8 °F 29.6 °F 30.13 in NW 3.3 mph 29.0 mph 53 % 0.00 in
11:42 45.8 °F 29.6 °F 30.13 in West 5.2 mph 29.0 mph 53 % 0.00 in
11:47 45.8 °F 28.7 °F 30.13 in WNW 4.6 mph 29.0 mph 51 % 0.00 in
11:52 45.9 °F 28.8 °F 30.14 in WNW 7.2 mph 29.0 mph 51 % 0.00 in
11:57 45.8 °F 29.2 °F 30.14 in WNW 3.3 mph 29.0 mph 52 % 0.00 in
12:02 45.9 °F 28.8 °F 30.14 in West 8.2 mph 29.0 mph 51 % 0.00 in
12:07 45.9 °F 29.2 °F 30.14 in WNW 3.7 mph 29.0 mph 52 % 0.00 in
12:12 46.0 °F 29.3 °F 30.14 in NW 3.2 mph 29.0 mph 52 % 0.00 in
12:17 46.1 °F 29.4 °F 30.14 in WSW 4.2 mph 29.0 mph 52 % 0.00 in
12:22 46.3 °F 30.1 °F 30.14 in West 2.5 mph 29.0 mph 53 % 0.00 in
12:27 46.6 °F 28.4 °F 30.14 in WNW 5.3 mph 29.0 mph 49 % 0.00 in
12:32 46.8 °F 29.6 °F 30.14 in WNW 4.5 mph 29.0 mph 51 % 0.00 in
12:38 47.0 °F 28.8 °F 30.14 in West 6.5 mph 29.0 mph 49 % 0.00 in
12:43 47.2 °F 28.0 °F 30.14 in NW 6.3 mph 29.0 mph 47 % 0.00 in
12:48 47.1 °F 27.4 °F 30.14 in NW 4.1 mph 29.0 mph 46 % 0.00 in
12:53 47.1 °F 27.4 °F 30.14 in NW 5.7 mph 29.0 mph 46 % 0.00 in
12:58 47.0 °F 27.3 °F 30.14 in WNW 5.5 mph 29.0 mph 46 % 0.00 in
13:03 47.0 °F 26.7 °F 30.15 in SW 6.3 mph 29.0 mph 45 % 0.00 in
13:08 46.9 °F 26.1 °F 30.15 in WNW 5.9 mph 29.0 mph 44 % 0.00 in
13:13 46.9 °F 26.6 °F 30.15 in NNW 5.9 mph 29.0 mph 45 % 0.00 in
13:18 46.9 °F 27.2 °F 30.15 in WNW 5.1 mph 29.0 mph 46 % 0.00 in
13:23 46.9 °F 26.1 °F 30.15 in West 7.4 mph 29.0 mph 44 % 0.00 in
13:28 47.0 °F 26.2 °F 30.15 in WSW 3.9 mph 29.0 mph 44 % 0.00 in
13:33 47.0 °F 26.2 °F 30.16 in WSW 4.3 mph 29.0 mph 44 % 0.00 in
13:38 47.0 °F 26.2 °F 30.15 in WNW 5.0 mph 29.0 mph 44 % 0.00 in
13:43 47.1 °F 26.3 °F 30.15 in WNW 4.7 mph 29.0 mph 44 % 0.00 in
13:49 47.1 °F 26.3 °F 30.16 in West 3.6 mph 29.0 mph 44 % 0.00 in
13:54 47.1 °F 26.3 °F 30.16 in NW 5.8 mph 29.0 mph 44 % 0.00 in
13:59 47.2 °F 26.4 °F 30.16 in WNW 5.1 mph 29.0 mph 44 % 0.00 in
14:04 47.2 °F 25.8 °F 30.17 in WNW 6.1 mph 29.0 mph 43 % 0.00 in
14:09 47.2 °F 26.4 °F 30.17 in WSW 5.2 mph 29.0 mph 44 % 0.00 in
14:14 47.2 °F 25.8 °F 30.17 in WNW 5.5 mph 29.0 mph 43 % 0.00 in
14:19 47.1 °F 25.7 °F 30.17 in West 2.7 mph 29.0 mph 43 % 0.00 in
14:24 47.0 °F 26.2 °F 30.17 in NW 5.5 mph 29.0 mph 44 % 0.00 in
14:29 46.9 °F 26.1 °F 30.18 in WSW 4.9 mph 29.0 mph 44 % 0.00 in
14:34 46.8 °F 26.0 °F 30.17 in WNW 1.1 mph 29.0 mph 44 % 0.00 in
14:39 46.7 °F 25.9 °F 30.18 in NW 4.7 mph 29.0 mph 44 % 0.00 in
14:44 46.5 °F 25.7 °F 30.18 in WNW 2.0 mph 7.0 mph 44 % 0.00 in
14:49 46.4 °F 25.6 °F 30.18 in WSW 5.7 mph 29.0 mph 44 % 0.00 in
14:54 46.3 °F 26.1 °F 30.18 in NW 2.4 mph 29.0 mph 45 % 0.00 in
14:59 46.2 °F 26.0 °F 30.19 in WSW 4.5 mph 29.0 mph 45 % 0.00 in
15:04 46.1 °F 25.9 °F 30.19 in WNW 3.3 mph 29.0 mph 45 % 0.00 in
15:09 46.0 °F 25.8 °F 30.19 in WNW 1.3 mph 29.0 mph 45 % 0.00 in
15:14 45.9 °F 25.7 °F 30.20 in WSW 3.9 mph 29.0 mph 45 % 0.00 in
15:19 45.8 °F 26.2 °F 30.20 in WNW 4.0 mph 29.0 mph 46 % 0.00 in
15:24 45.8 °F 26.7 °F 30.21 in WNW 3.2 mph 29.0 mph 47 % 0.00 in
15:30 45.7 °F 26.6 °F 30.21 in WNW 1.5 mph 29.0 mph 47 % 0.00 in
15:35 45.5 °F 26.9 °F 30.21 in WNW 2.8 mph 29.0 mph 48 % 0.00 in
15:40 45.4 °F 26.3 °F 30.21 in West 3.3 mph 29.0 mph 47 % 0.00 in
15:45 45.3 °F 26.2 °F 30.22 in WNW 1.7 mph 29.0 mph 47 % 0.00 in
15:50 45.2 °F 25.6 °F 30.22 in West 2.6 mph 29.0 mph 46 % 0.00 in
15:55 45.1 °F 26.1 °F 30.23 in WNW 1.5 mph 29.0 mph 47 % 0.00 in
16:00 44.9 °F 26.4 °F 30.23 in WSW 1.5 mph 29.0 mph 48 % 0.00 in
16:05 44.8 °F 26.3 °F 30.23 in West 2.6 mph 29.0 mph 48 % 0.00 in
16:10 44.6 °F 26.1 °F 30.24 in WNW 1.1 mph 29.0 mph 48 % 0.00 in
16:15 44.5 °F 25.5 °F 30.24 in WNW 0.8 mph 29.0 mph 47 % 0.00 in
16:20 44.4 °F 25.4 °F 30.25 in WNW 0.4 mph 29.0 mph 47 % 0.00 in
16:25 44.3 °F 25.3 °F 30.25 in WNW 2.4 mph 29.0 mph 47 % 0.00 in
16:31 44.1 °F 25.6 °F 30.25 in WNW 2.6 mph 29.0 mph 48 % 0.00 in
16:36 43.9 °F 25.5 °F 30.25 in WNW 0.2 mph 29.0 mph 48 % 0.00 in
16:41 43.8 °F 25.4 °F 30.26 in WNW 0.5 mph 29.0 mph 48 % 0.00 in
16:46 43.6 °F 25.7 °F 30.27 in WNW 1.5 mph 29.0 mph 49 % 0.00 in
16:51 43.3 °F 25.9 °F 30.27 in WNW 2.7 mph 29.0 mph 50 % 0.00 in
16:56 43.2 °F 25.8 °F 30.27 in WNW 3.6 mph 29.0 mph 50 % 0.00 in
17:01 43.0 °F 25.6 °F 30.28 in NW 2.7 mph 29.0 mph 50 % 0.00 in
17:06 42.8 °F 25.4 °F 30.28 in NNW 2.0 mph 29.0 mph 50 % 0.00 in
17:11 42.8 °F 25.4 °F 30.28 in NW 2.0 mph 29.0 mph 50 % 0.00 in
17:16 42.7 °F 25.8 °F 30.29 in NW 3.2 mph 29.0 mph 51 % 0.00 in
17:21 42.6 °F 26.2 °F 30.29 in WNW 2.0 mph 29.0 mph 52 % 0.00 in
17:26 42.5 °F 26.6 °F 30.29 in WNW 1.8 mph 29.0 mph 53 % 0.00 in
17:31 42.4 °F 26.9 °F 30.29 in WNW 0.4 mph 29.0 mph 54 % 0.00 in
17:36 42.4 °F 26.9 °F 30.30 in WNW 2.3 mph 29.0 mph 54 % 0.00 in
17:41 42.2 °F 27.2 °F 30.30 in NW 0.9 mph 29.0 mph 55 % 0.00 in
17:46 42.1 °F 27.5 °F 30.30 in NW 0.7 mph 29.0 mph 56 % 0.00 in
17:52 42.0 °F 27.9 °F 30.30 in WNW 0.6 mph 29.0 mph 57 % 0.00 in
17:57 41.9 °F 28.2 °F 30.30 in WNW 0.6 mph 29.0 mph 58 % 0.00 in
18:02 41.8 °F 28.5 °F 30.30 in WNW 1.8 mph 29.0 mph 59 % 0.00 in
18:07 41.7 °F 28.8 °F 30.30 in WNW 0.4 mph 29.0 mph 60 % 0.00 in
18:12 41.6 °F 28.7 °F 30.31 in WNW 0.2 mph 29.0 mph 60 % 0.00 in
18:17 41.4 °F 28.5 °F 30.30 in WNW 0.5 mph 29.0 mph 60 % 0.00 in
18:22 41.2 °F 28.4 °F 30.31 in WNW 0.1 mph 29.0 mph 60 % 0.00 in
18:27 41.0 °F 29.4 °F 30.31 in Calm   29.0 mph 63 % 0.00 in
18:32 40.8 °F 29.2 °F 30.32 in Calm   29.0 mph 63 % 0.00 in
18:37 40.3 °F 28.7 °F 30.32 in WNW 1.7 mph 29.0 mph 63 % 0.00 in
18:42 39.8 °F 28.2 °F 30.32 in WNW 0.9 mph 29.0 mph 63 % 0.00 in
18:47 39.5 °F 27.9 °F 30.31 in West 0.5 mph 29.0 mph 63 % 0.00 in
18:52 39.3 °F 28.5 °F 30.31 in Calm   29.0 mph 65 % 0.00 in
18:57 39.1 °F 27.9 °F 30.32 in Calm   29.0 mph 64 % 0.00 in
19:02 38.5 °F 27.7 °F 30.32 in West 1.8 mph 29.0 mph 65 % 0.00 in
19:07 38.0 °F 26.9 °F 30.33 in West 0.9 mph 29.0 mph 64 % 0.00 in
19:13 37.6 °F 26.9 °F 30.33 in Calm   29.0 mph 65 % 0.00 in
19:18 37.2 °F 26.9 °F 30.33 in West 0.4 mph 29.0 mph 66 % 0.00 in
19:23 36.8 °F 26.5 °F 30.34 in West 1.5 mph 29.0 mph 66 % 0.00 in
19:28 36.4 °F 26.5 °F 30.34 in West 1.9 mph 29.0 mph 67 % 0.00 in
19:33 36.1 °F 26.6 °F 30.34 in West 0.9 mph 29.0 mph 68 % 0.00 in
19:38 36.0 °F 26.5 °F 30.35 in Calm   29.0 mph 68 % 0.00 in
19:43 35.9 °F 26.7 °F 30.35 in Calm   29.0 mph 69 % 0.00 in
19:48 35.7 °F 26.5 °F 30.35 in Calm   29.0 mph 69 % 0.00 in
19:53 35.4 °F 26.6 °F 30.35 in West 0.6 mph 29.0 mph 70 % 0.00 in
19:58 35.2 °F 26.4 °F 30.35 in West 1.8 mph 29.0 mph 70 % 0.00 in
20:03 34.9 °F 26.1 °F 30.36 in Calm   29.0 mph 70 % 0.00 in
20:08 34.7 °F 26.3 °F 30.36 in Calm   29.0 mph 71 % 0.00 in
20:13 34.6 °F 26.2 °F 30.36 in Calm   29.0 mph 71 % 0.00 in
20:18 34.4 °F 26.0 °F 30.37 in Calm   29.0 mph 71 % 0.00 in
20:23 34.3 °F 25.9 °F 30.37 in West 0.6 mph 29.0 mph 71 % 0.00 in
20:28 34.0 °F 25.9 °F 30.38 in West 2.0 mph 29.0 mph 72 % 0.00 in
20:34 33.8 °F 25.7 °F 30.38 in Calm   29.0 mph 72 % 0.00 in
20:39 33.7 °F 25.6 °F 30.39 in Calm   29.0 mph 72 % 0.00 in
20:44 33.6 °F 25.5 °F 30.39 in Calm   29.0 mph 72 % 0.00 in
20:49 33.4 °F 25.7 °F 30.39 in Calm   29.0 mph 73 % 0.00 in
20:54 33.3 °F 25.6 °F 30.39 in Calm   29.0 mph 73 % 0.00 in
20:59 33.2 °F 25.5 °F 30.39 in Calm   29.0 mph 73 % 0.00 in
21:04 33.0 °F 25.3 °F 30.39 in Calm   29.0 mph 73 % 0.00 in
21:09 32.9 °F 25.5 °F 30.39 in Calm   29.0 mph 74 % 0.00 in
21:14 32.8 °F 25.4 °F 30.39 in West 0.2 mph 29.0 mph 74 % 0.00 in
21:19 32.5 °F 25.5 °F 30.39 in Calm   29.0 mph 75 % 0.00 in
21:24 32.3 °F 25.6 °F 30.38 in Calm   29.0 mph 76 % 0.00 in
21:29 32.1 °F 25.4 °F 30.39 in West 1.1 mph 29.0 mph 76 % 0.00 in
21:34 32.0 °F 25.3 °F 30.39 in Calm   29.0 mph 76 % 0.00 in
21:39 31.9 °F 25.2 °F 30.39 in Calm     76 % 0.00 in
21:44 31.7 °F 25.0 °F 30.40 in Calm   29.0 mph 76 % 0.00 in
21:49 31.6 °F 24.9 °F 30.40 in Calm     76 % 0.00 in
21:54 31.6 °F 25.2 °F 30.40 in Calm     77 % 0.00 in
21:59 31.5 °F 25.1 °F 30.41 in Calm   29.0 mph 77 % 0.00 in
22:04 31.4 °F 25.0 °F 30.41 in Calm     77 % 0.00 in
22:09 31.2 °F 24.8 °F 30.41 in Calm   29.0 mph 77 % 0.00 in
22:14 31.2 °F 24.8 °F 30.42 in West 0.1 mph 29.0 mph 77 % 0.00 in
22:19 31.1 °F 24.7 °F 30.42 in Calm   1.0 mph 77 % 0.00 in
22:24 31.1 °F 24.7 °F 30.42 in Calm     77 % 0.00 in
22:29 31.1 °F 24.7 °F 30.42 in Calm     77 % 0.00 in
22:34 31.1 °F 24.7 °F 30.42 in West 1.0 mph 2.0 mph 77 % 0.00 in
22:39 31.0 °F 24.9 °F 30.42 in West 1.0 mph 2.0 mph 78 % 0.00 in
22:44 31.0 °F 24.9 °F 30.42 in Calm   1.0 mph 78 % 0.00 in
22:49 30.9 °F 25.2 °F 30.43 in Calm   1.0 mph 79 % 0.00 in
22:54 30.9 °F 25.2 °F 30.42 in Calm     79 % 0.00 in
22:59 30.9 °F 25.5 °F 30.42 in Calm   29.0 mph 80 % 0.00 in
23:04 30.9 °F 25.5 °F 30.42 in Calm   29.0 mph 80 % 0.00 in
23:09 30.9 °F 25.5 °F 30.42 in Calm   29.0 mph 80 % 0.00 in
23:14 31.0 °F 26.1 °F 30.42 in Calm   29.0 mph 82 % 0.00 in
23:19 31.0 °F 26.1 °F 30.42 in Calm   29.0 mph 82 % 0.00 in
23:24 31.0 °F 26.4 °F 30.42 in Calm   29.0 mph 83 % 0.00 in
23:29 31.1 °F 26.5 °F 30.42 in Calm   29.0 mph 83 % 0.00 in
23:35 31.1 °F 26.5 °F 30.42 in Calm   29.0 mph 83 % 0.00 in
23:39 31.2 °F 26.6 °F 30.42 in Calm   29.0 mph 83 % 0.00 in
23:45 31.3 °F 27.0 °F 30.42 in West 1.1 mph 29.0 mph 84 % 0.00 in
23:50 31.3 °F 27.0 °F 30.42 in West 0.2 mph 29.0 mph 84 % 0.00 in
23:55 31.4 °F 27.1 °F 30.42 in West 0.2 mph 29.0 mph 84 % 0.00 in
Crab Meadow Weather
Compliments of Weather Underground - 3 mb

Script developed by  Jim McMurry - jmcmurry@mwt.net Adapted for the template by  Wim van der Kuil - Leuven-Template.eu

Lightning: The chances of being hit by lightning is 1:28,500.